Lemont, Pennsylvania
Current Conditions -  °F | °C
As of 12:53 PM on Thursday 29 Jan 2015 (Local Time) from KUNV Reporting Station
Overcast Overcast  
Wind Chill: 16°   Ceiling: 6500
Heat Index: 27°   Visibility: 10mi
Dew Point:   Wind: 12mph
Humidity: 40%   Direction: 220°SW
Pressure: 30.01"   Gusts: NA
Location:  40.81°N, 77.82°W
Report Text: KUNV 291753Z 22010KT 10SM OVC065 M03/M15 A3001
Loading
Personal Weather Stations






























Interactive Weather Map New forecast layout! Learn more

10-Day Weather Forecast

Advertisements
Track Severe Weather on mobile